GHARV FGAN-FPST
Flight info
| Callsign | GHARV |
|---|---|
| Flight time | 0h 50m |
| Altitude | 1800 |
| Route | DIRECT |
| Aircraft | BE36/L-ICAO/YES |
Departure
| Time | 2026-04-20 18:08 |
|---|---|
| Airport | Annobón Airport (FGAN) |
Arrival
| Time | 2026-04-20 18:59 |
|---|---|
| Airport | São Tomé International Airport (FPST) |
| Time | Latitude | Longitude | Altitude | Speed | Heading |
|---|---|---|---|---|---|
| 2026-04-20 17:44 | -1.40939 | 5.62128 | 88 ft | 0 kts | 176° |
| 2026-04-20 18:02 | -1.40976 | 5.62110 | 88 ft | 13 kts | 193° |
| 2026-04-20 18:02 | -1.41062 | 5.62152 | 91 ft | 17 kts | 110° |
| 2026-04-20 18:02 | -1.40967 | 5.62289 | 88 ft | 31 kts | 49° |
| 2026-04-20 18:03 | -1.40801 | 5.62475 | 81 ft | 36 kts | 47° |
| 2026-04-20 18:03 | -1.40643 | 5.62652 | 69 ft | 31 kts | 47° |
| 2026-04-20 18:03 | -1.40503 | 5.62802 | 56 ft | 20 kts | 48° |
| 2026-04-20 18:03 | -1.40454 | 5.62914 | 49 ft | 17 kts | 79° |
| 2026-04-20 18:04 | -1.40427 | 5.62962 | 48 ft | 0 kts | 354° |
| 2026-04-20 18:07 | -1.40419 | 5.62913 | 46 ft | 8 kts | 236° |
| 2026-04-20 18:07 | -1.40441 | 5.62888 | 49 ft | 1 kts | 227° |
| 2026-04-20 18:08 | -1.40539 | 5.62781 | 59 ft | 57 kts | 227° |
| 2026-04-20 18:08 | -1.40887 | 5.62367 | 195 ft | 85 kts | 232° |
| 2026-04-20 18:08 | -1.41233 | 5.61935 | 616 ft | 82 kts | 238° |
| 2026-04-20 18:08 | -1.41212 | 5.61369 | 916 ft | 93 kts | 301° |
| 2026-04-20 18:09 | -1.40634 | 5.61019 | 1148 ft | 112 kts | 349° |
| 2026-04-20 18:09 | -1.39813 | 5.61166 | 1407 ft | 124 kts | 29° |
| 2026-04-20 18:09 | -1.39102 | 5.61694 | 1593 ft | 137 kts | 38° |
| 2026-04-20 18:09 | -1.38349 | 5.62333 | 1776 ft | 140 kts | 44° |
| 2026-04-20 18:10 | -1.37713 | 5.63025 | 2063 ft | 139 kts | 49° |
| 2026-04-20 18:10 | -1.37006 | 5.63762 | 2123 ft | 148 kts | 43° |
| 2026-04-20 18:10 | -1.36176 | 5.64464 | 2047 ft | 164 kts | 38° |
| 2026-04-20 18:10 | -1.35271 | 5.65112 | 2303 ft | 153 kts | 31° |
| 2026-04-20 18:11 | -1.34323 | 5.65665 | 2292 ft | 162 kts | 30° |
| 2026-04-20 18:11 | -1.33321 | 5.66238 | 2280 ft | 167 kts | 30° |
| 2026-04-20 18:11 | -1.32301 | 5.66820 | 2256 ft | 171 kts | 30° |
| 2026-04-20 18:11 | -1.31242 | 5.67425 | 2188 ft | 175 kts | 30° |
| 2026-04-20 18:12 | -1.30181 | 5.68032 | 2116 ft | 177 kts | 30° |
| 2026-04-20 18:12 | -1.29131 | 5.68678 | 2042 ft | 178 kts | 32° |
| 2026-04-20 18:12 | -1.28084 | 5.69370 | 1968 ft | 179 kts | 33° |
| 2026-04-20 18:12 | -1.27054 | 5.70058 | 1894 ft | 179 kts | 33° |
| 2026-04-20 18:13 | -1.26001 | 5.70761 | 1824 ft | 179 kts | 33° |
| 2026-04-20 18:13 | -1.24973 | 5.71448 | 1834 ft | 176 kts | 33° |
| 2026-04-20 18:13 | -1.23967 | 5.72120 | 1835 ft | 174 kts | 33° |
| 2026-04-20 18:13 | -1.22954 | 5.72797 | 1835 ft | 173 kts | 33° |
| 2026-04-20 18:14 | -1.21958 | 5.73464 | 1835 ft | 173 kts | 33° |
| 2026-04-20 18:14 | -1.20947 | 5.74139 | 1835 ft | 172 kts | 33° |
| 2026-04-20 18:14 | -1.19953 | 5.74804 | 1836 ft | 172 kts | 33° |
| 2026-04-20 18:14 | -1.18953 | 5.75474 | 1836 ft | 172 kts | 33° |
| 2026-04-20 18:15 | -1.17945 | 5.76149 | 1836 ft | 172 kts | 34° |
| 2026-04-20 18:15 | -1.16950 | 5.76815 | 1836 ft | 172 kts | 34° |
| 2026-04-20 18:15 | -1.15945 | 5.77487 | 1836 ft | 172 kts | 33° |
| 2026-04-20 18:15 | -1.14950 | 5.78152 | 1836 ft | 172 kts | 33° |
| 2026-04-20 18:16 | -1.13947 | 5.78824 | 1836 ft | 172 kts | 33° |
| 2026-04-20 18:16 | -1.12956 | 5.79486 | 1836 ft | 172 kts | 33° |
| 2026-04-20 18:16 | -1.11945 | 5.80165 | 1836 ft | 172 kts | 33° |
| 2026-04-20 18:16 | -1.10960 | 5.80826 | 1836 ft | 172 kts | 33° |
| 2026-04-20 18:17 | -1.09954 | 5.81500 | 1836 ft | 172 kts | 33° |
| 2026-04-20 18:17 | -1.08956 | 5.82170 | 1836 ft | 172 kts | 33° |
| 2026-04-20 18:17 | -1.07960 | 5.82838 | 1836 ft | 172 kts | 33° |
| 2026-04-20 18:17 | -1.06953 | 5.83513 | 1836 ft | 172 kts | 33° |
| 2026-04-20 18:18 | -1.05955 | 5.84183 | 1836 ft | 172 kts | 33° |
| 2026-04-20 18:18 | -1.04964 | 5.84848 | 1836 ft | 172 kts | 33° |
| 2026-04-20 18:18 | -1.03968 | 5.85517 | 1836 ft | 172 kts | 33° |
| 2026-04-20 18:18 | -1.02959 | 5.86194 | 1836 ft | 172 kts | 33° |
| 2026-04-20 18:19 | -1.01962 | 5.86863 | 1836 ft | 172 kts | 33° |
| 2026-04-20 18:19 | -1.00964 | 5.87533 | 1836 ft | 172 kts | 33° |
| 2026-04-20 18:19 | -0.99967 | 5.88203 | 1836 ft | 172 kts | 33° |
| 2026-04-20 18:19 | -0.98973 | 5.88870 | 1836 ft | 172 kts | 33° |
| 2026-04-20 18:20 | -0.97977 | 5.89540 | 1836 ft | 172 kts | 33° |
| 2026-04-20 18:20 | -0.96971 | 5.90218 | 1836 ft | 172 kts | 34° |
| 2026-04-20 18:20 | -0.95979 | 5.90885 | 1836 ft | 172 kts | 33° |
| 2026-04-20 18:20 | -0.94982 | 5.91554 | 1836 ft | 172 kts | 34° |
| 2026-04-20 18:21 | -0.93982 | 5.92226 | 1836 ft | 172 kts | 33° |
| 2026-04-20 18:21 | -0.92982 | 5.92897 | 1836 ft | 172 kts | 34° |
| 2026-04-20 18:21 | -0.91981 | 5.93570 | 1836 ft | 172 kts | 34° |
| 2026-04-20 18:21 | -0.91319 | 5.94015 | 1836 ft | 172 kts | 34° |
| 2026-04-20 18:22 | -0.90315 | 5.94691 | 1825 ft | 173 kts | 34° |
| 2026-04-20 18:22 | -0.89317 | 5.95362 | 1823 ft | 173 kts | 34° |
| 2026-04-20 18:22 | -0.88309 | 5.96040 | 1822 ft | 172 kts | 34° |
| 2026-04-20 18:23 | -0.87312 | 5.96711 | 1822 ft | 172 kts | 34° |
| 2026-04-20 18:23 | -0.86309 | 5.97378 | 1790 ft | 173 kts | 34° |
| 2026-04-20 18:23 | -0.85287 | 5.98036 | 1750 ft | 174 kts | 34° |
| 2026-04-20 18:23 | -0.84265 | 5.98671 | 1710 ft | 174 kts | 34° |
| 2026-04-20 18:24 | -0.83209 | 5.99301 | 1668 ft | 175 kts | 34° |
| 2026-04-20 18:24 | -0.82157 | 5.99914 | 1659 ft | 174 kts | 33° |
| 2026-04-20 18:24 | -0.81106 | 6.00525 | 1656 ft | 174 kts | 33° |
| 2026-04-20 18:24 | -0.80066 | 6.01132 | 1653 ft | 173 kts | 33° |
| 2026-04-20 18:25 | -0.79018 | 6.01746 | 1654 ft | 172 kts | 34° |
| 2026-04-20 18:25 | -0.77983 | 6.02349 | 1658 ft | 172 kts | 34° |
| 2026-04-20 18:25 | -0.76953 | 6.02953 | 1657 ft | 172 kts | 33° |
| 2026-04-20 18:25 | -0.75916 | 6.03566 | 1657 ft | 172 kts | 34° |
| 2026-04-20 18:26 | -0.74887 | 6.04177 | 1657 ft | 172 kts | 34° |
| 2026-04-20 18:26 | -0.73835 | 6.04789 | 1656 ft | 172 kts | 33° |
| 2026-04-20 18:26 | -0.72802 | 6.05391 | 1657 ft | 172 kts | 33° |
| 2026-04-20 18:26 | -0.71766 | 6.05999 | 1657 ft | 173 kts | 34° |
| 2026-04-20 18:27 | -0.70720 | 6.06610 | 1657 ft | 173 kts | 34° |
| 2026-04-20 18:27 | -0.69671 | 6.07218 | 1656 ft | 172 kts | 33° |
| 2026-04-20 18:27 | -0.68646 | 6.07816 | 1657 ft | 171 kts | 34° |
| 2026-04-20 18:27 | -0.67614 | 6.08420 | 1657 ft | 171 kts | 34° |
| 2026-04-20 18:28 | -0.66587 | 6.09023 | 1657 ft | 170 kts | 34° |
| 2026-04-20 18:28 | -0.65561 | 6.09626 | 1658 ft | 170 kts | 34° |
| 2026-04-20 18:28 | -0.64527 | 6.10231 | 1657 ft | 170 kts | 33° |
| 2026-04-20 18:28 | -0.63511 | 6.10829 | 1657 ft | 170 kts | 34° |
| 2026-04-20 18:29 | -0.62489 | 6.11432 | 1657 ft | 170 kts | 34° |
| 2026-04-20 18:29 | -0.61464 | 6.12039 | 1657 ft | 170 kts | 34° |
| 2026-04-20 18:29 | -0.60442 | 6.12641 | 1657 ft | 170 kts | 34° |
| 2026-04-20 18:29 | -0.59419 | 6.13242 | 1657 ft | 170 kts | 34° |
| 2026-04-20 18:30 | -0.58391 | 6.13849 | 1657 ft | 171 kts | 34° |
| 2026-04-20 18:30 | -0.57373 | 6.14452 | 1656 ft | 171 kts | 34° |
| 2026-04-20 18:30 | -0.56340 | 6.15064 | 1656 ft | 171 kts | 34° |
| 2026-04-20 18:30 | -0.55308 | 6.15672 | 1655 ft | 171 kts | 34° |
| 2026-04-20 18:31 | -0.54289 | 6.16273 | 1655 ft | 170 kts | 34° |
| 2026-04-20 18:31 | -0.53266 | 6.16874 | 1655 ft | 170 kts | 34° |
| 2026-04-20 18:31 | -0.52237 | 6.17482 | 1652 ft | 170 kts | 34° |
| 2026-04-20 18:31 | -0.51209 | 6.18091 | 1650 ft | 170 kts | 34° |
| 2026-04-20 18:32 | -0.50188 | 6.18695 | 1648 ft | 170 kts | 34° |
| 2026-04-20 18:32 | -0.49170 | 6.19298 | 1647 ft | 170 kts | 34° |
| 2026-04-20 18:32 | -0.48143 | 6.19906 | 1647 ft | 170 kts | 34° |
| 2026-04-20 18:32 | -0.47132 | 6.20510 | 1646 ft | 170 kts | 34° |
| 2026-04-20 18:33 | -0.46100 | 6.21127 | 1644 ft | 170 kts | 34° |
| 2026-04-20 18:33 | -0.45090 | 6.21738 | 1643 ft | 170 kts | 34° |
| 2026-04-20 18:33 | -0.44069 | 6.22346 | 1643 ft | 171 kts | 34° |
| 2026-04-20 18:33 | -0.43040 | 6.22961 | 1642 ft | 171 kts | 34° |
| 2026-04-20 18:34 | -0.42006 | 6.23573 | 1641 ft | 171 kts | 34° |
| 2026-04-20 18:34 | -0.40980 | 6.24179 | 1641 ft | 171 kts | 34° |
| 2026-04-20 18:34 | -0.39952 | 6.24789 | 1640 ft | 171 kts | 34° |
| 2026-04-20 18:34 | -0.38919 | 6.25406 | 1639 ft | 171 kts | 34° |
| 2026-04-20 18:35 | -0.37889 | 6.26016 | 1637 ft | 171 kts | 34° |
| 2026-04-20 18:35 | -0.36875 | 6.26623 | 1636 ft | 171 kts | 34° |
| 2026-04-20 18:35 | -0.35845 | 6.27244 | 1636 ft | 171 kts | 34° |
| 2026-04-20 18:35 | -0.34836 | 6.27850 | 1636 ft | 171 kts | 34° |
| 2026-04-20 18:36 | -0.33811 | 6.28472 | 1636 ft | 171 kts | 34° |
| 2026-04-20 18:36 | -0.32781 | 6.29087 | 1636 ft | 171 kts | 34° |
| 2026-04-20 18:36 | -0.31760 | 6.29702 | 1636 ft | 171 kts | 34° |
| 2026-04-20 18:36 | -0.30747 | 6.30312 | 1637 ft | 171 kts | 34° |
| 2026-04-20 18:37 | -0.29715 | 6.30939 | 1636 ft | 171 kts | 34° |
| 2026-04-20 18:37 | -0.28698 | 6.31553 | 1637 ft | 171 kts | 34° |
| 2026-04-20 18:37 | -0.27678 | 6.32170 | 1637 ft | 171 kts | 34° |
| 2026-04-20 18:37 | -0.26659 | 6.32784 | 1636 ft | 171 kts | 34° |
| 2026-04-20 18:38 | -0.25636 | 6.33394 | 1637 ft | 171 kts | 34° |
| 2026-04-20 18:38 | -0.24615 | 6.34010 | 1637 ft | 171 kts | 34° |
| 2026-04-20 18:38 | -0.23584 | 6.34629 | 1636 ft | 171 kts | 34° |
| 2026-04-20 18:38 | -0.22560 | 6.35245 | 1636 ft | 171 kts | 34° |
| 2026-04-20 18:39 | -0.21538 | 6.35859 | 1636 ft | 171 kts | 34° |
| 2026-04-20 18:39 | -0.20521 | 6.36474 | 1639 ft | 171 kts | 34° |
| 2026-04-20 18:39 | -0.19499 | 6.37095 | 1643 ft | 171 kts | 34° |
| 2026-04-20 18:39 | -0.18475 | 6.37718 | 1649 ft | 171 kts | 34° |
| 2026-04-20 18:40 | -0.17456 | 6.38341 | 1654 ft | 171 kts | 34° |
| 2026-04-20 18:40 | -0.16443 | 6.38958 | 1657 ft | 171 kts | 34° |
| 2026-04-20 18:40 | -0.15421 | 6.39582 | 1657 ft | 171 kts | 34° |
| 2026-04-20 18:40 | -0.14403 | 6.40200 | 1657 ft | 171 kts | 34° |
| 2026-04-20 18:41 | -0.13380 | 6.40825 | 1657 ft | 171 kts | 34° |
| 2026-04-20 18:41 | -0.12364 | 6.41447 | 1656 ft | 171 kts | 34° |
| 2026-04-20 18:41 | -0.11351 | 6.42067 | 1657 ft | 171 kts | 34° |
| 2026-04-20 18:41 | -0.10339 | 6.42689 | 1656 ft | 171 kts | 36° |
| 2026-04-20 18:42 | -0.09385 | 6.43419 | 1595 ft | 170 kts | 41° |
| 2026-04-20 18:42 | -0.08505 | 6.44181 | 1585 ft | 165 kts | 45° |
| 2026-04-20 18:42 | -0.07639 | 6.44939 | 1575 ft | 163 kts | 44° |
| 2026-04-20 18:42 | -0.06784 | 6.45678 | 1514 ft | 166 kts | 43° |
| 2026-04-20 18:43 | -0.05885 | 6.46432 | 1385 ft | 167 kts | 44° |
| 2026-04-20 18:43 | -0.04996 | 6.47208 | 1174 ft | 169 kts | 45° |
| 2026-04-20 18:43 | -0.04160 | 6.48012 | 1025 ft | 167 kts | 47° |
| 2026-04-20 18:43 | -0.03346 | 6.48830 | 913 ft | 164 kts | 48° |
| 2026-04-20 18:44 | -0.02604 | 6.49667 | 904 ft | 156 kts | 53° |
| 2026-04-20 18:44 | -0.01994 | 6.50508 | 1022 ft | 144 kts | 60° |
| 2026-04-20 18:44 | -0.01458 | 6.51345 | 1110 ft | 139 kts | 60° |
| 2026-04-20 18:44 | -0.00923 | 6.52155 | 1109 ft | 144 kts | 56° |
| 2026-04-20 18:45 | -0.00231 | 6.52848 | 1285 ft | 135 kts | 45° |
| 2026-04-20 18:45 | 0.00455 | 6.53486 | 1375 ft | 134 kts | 47° |
| 2026-04-20 18:45 | 0.01107 | 6.54163 | 1395 ft | 139 kts | 45° |
| 2026-04-20 18:45 | 0.01686 | 6.54878 | 1612 ft | 125 kts | 64° |
| 2026-04-20 18:46 | 0.02138 | 6.55618 | 1700 ft | 127 kts | 63° |
| 2026-04-20 18:46 | 0.02663 | 6.56339 | 1818 ft | 128 kts | 54° |
| 2026-04-20 18:46 | 0.03181 | 6.56941 | 1824 ft | 135 kts | 52° |
| 2026-04-20 18:47 | 0.03426 | 6.57213 | 1936 ft | 135 kts | 47° |
| 2026-04-20 18:47 | 0.04110 | 6.57896 | 1862 ft | 149 kts | 45° |
| 2026-04-20 18:47 | 0.04848 | 6.58692 | 1897 ft | 158 kts | 46° |
| 2026-04-20 18:47 | 0.05630 | 6.59462 | 2058 ft | 157 kts | 43° |
| 2026-04-20 18:48 | 0.06427 | 6.60215 | 2130 ft | 160 kts | 42° |
| 2026-04-20 18:48 | 0.07289 | 6.61025 | 1902 ft | 178 kts | 45° |
| 2026-04-20 18:48 | 0.08086 | 6.61963 | 1876 ft | 176 kts | 48° |
| 2026-04-20 18:48 | 0.09015 | 6.62743 | 1951 ft | 170 kts | 38° |
| 2026-04-20 18:49 | 0.09989 | 6.63427 | 1972 ft | 171 kts | 37° |
| 2026-04-20 18:49 | 0.10833 | 6.64302 | 1862 ft | 176 kts | 50° |
| 2026-04-20 18:49 | 0.11609 | 6.65219 | 2000 ft | 168 kts | 52° |
| 2026-04-20 18:49 | 0.12293 | 6.66180 | 1975 ft | 172 kts | 52° |
| 2026-04-20 18:50 | 0.13110 | 6.67070 | 1950 ft | 173 kts | 44° |
| 2026-04-20 18:50 | 0.13997 | 6.67848 | 2027 ft | 169 kts | 37° |
| 2026-04-20 18:50 | 0.14940 | 6.68585 | 2008 ft | 172 kts | 39° |
| 2026-04-20 18:50 | 0.15850 | 6.69376 | 1987 ft | 173 kts | 40° |
| 2026-04-20 18:51 | 0.16753 | 6.70149 | 2054 ft | 170 kts | 41° |
| 2026-04-20 18:51 | 0.17642 | 6.70941 | 2063 ft | 171 kts | 40° |
| 2026-04-20 18:51 | 0.18607 | 6.71669 | 2031 ft | 174 kts | 35° |
| 2026-04-20 18:51 | 0.19607 | 6.72340 | 2043 ft | 172 kts | 32° |
| 2026-04-20 18:52 | 0.20655 | 6.72944 | 2065 ft | 172 kts | 26° |
| 2026-04-20 18:52 | 0.21782 | 6.73355 | 2024 ft | 174 kts | 15° |
| 2026-04-20 18:52 | 0.22960 | 6.73623 | 2058 ft | 172 kts | 11° |
| 2026-04-20 18:52 | 0.24141 | 6.73856 | 2076 ft | 172 kts | 11° |
| 2026-04-20 18:53 | 0.25327 | 6.74079 | 2056 ft | 173 kts | 12° |
| 2026-04-20 18:53 | 0.26502 | 6.74391 | 2063 ft | 172 kts | 11° |
| 2026-04-20 18:53 | 0.27717 | 6.74375 | 1964 ft | 177 kts | 351° |
| 2026-04-20 18:53 | 0.28902 | 6.74124 | 2049 ft | 171 kts | 346° |
| 2026-04-20 18:54 | 0.30058 | 6.73807 | 2082 ft | 171 kts | 343° |
| 2026-04-20 18:54 | 0.31215 | 6.73451 | 2019 ft | 174 kts | 339° |
| 2026-04-20 18:54 | 0.32237 | 6.72924 | 1816 ft | 161 kts | 330° |
| 2026-04-20 18:54 | 0.33172 | 6.72378 | 1566 ft | 147 kts | 327° |
| 2026-04-20 18:55 | 0.33956 | 6.71755 | 1373 ft | 139 kts | 311° |
| 2026-04-20 18:55 | 0.34499 | 6.71002 | 1289 ft | 127 kts | 301° |
| 2026-04-20 18:55 | 0.34925 | 6.70246 | 1176 ft | 122 kts | 297° |
| 2026-04-20 18:55 | 0.35350 | 6.69559 | 1216 ft | 108 kts | 303° |
| 2026-04-20 18:56 | 0.35729 | 6.68932 | 1207 ft | 102 kts | 300° |
| 2026-04-20 18:56 | 0.36071 | 6.68314 | 1177 ft | 99 kts | 297° |
| 2026-04-20 18:56 | 0.36359 | 6.67672 | 1080 ft | 104 kts | 292° |
| 2026-04-20 18:56 | 0.36699 | 6.67104 | 1125 ft | 90 kts | 322° |
| 2026-04-20 18:57 | 0.37314 | 6.67028 | 1024 ft | 93 kts | 13° |
| 2026-04-20 18:57 | 0.37961 | 6.67195 | 918 ft | 96 kts | 15° |
| 2026-04-20 18:57 | 0.38468 | 6.67569 | 742 ft | 90 kts | 58° |
| 2026-04-20 18:57 | 0.38620 | 6.68157 | 531 ft | 89 kts | 92° |
| 2026-04-20 18:58 | 0.38473 | 6.68747 | 357 ft | 85 kts | 112° |
| 2026-04-20 18:58 | 0.38259 | 6.69317 | 267 ft | 90 kts | 105° |
| 2026-04-20 18:58 | 0.38119 | 6.69948 | 136 ft | 95 kts | 103° |
| 2026-04-20 18:58 | 0.37974 | 6.70576 | 49 ft | 88 kts | 103° |
| 2026-04-20 18:59 | 0.37839 | 6.71126 | 41 ft | 75 kts | 107° |
| 2026-04-20 18:59 | 0.37763 | 6.71338 | 39 ft | 9 kts | 231° |
| 2026-04-20 18:59 | 0.37698 | 6.71295 | 39 ft | 13 kts | 194° |
| 2026-04-20 18:59 | 0.37604 | 6.71279 | 40 ft | 13 kts | 160° |
| 2026-04-20 19:00 | 0.37544 | 6.71335 | 39 ft | 12 kts | 187° |
| 2026-04-20 19:00 | 0.37537 | 6.71310 | 40 ft | 0 kts | 260° |